createdAt,value
2022-12-01T00:01:42.251Z,8.16
2022-12-01T00:04:08.753Z,8.11
2022-12-01T00:06:36.711Z,8.03
2022-12-01T00:09:21.973Z,8.02
2022-12-01T00:11:48.740Z,7.97
2022-12-01T00:14:16.321Z,8.05
2022-12-01T00:16:44.457Z,8.05
2022-12-01T00:19:11.039Z,7.96
2022-12-01T00:21:37.407Z,7.98
2022-12-01T00:24:04.027Z,7.97
2022-12-01T00:26:30.382Z,8.09
2022-12-01T00:28:58.949Z,7.98
2022-12-01T00:31:26.513Z,8.02
2022-12-01T00:33:53.215Z,7.91
2022-12-01T00:36:19.738Z,7.65
2022-12-01T00:38:46.481Z,7.28
2022-12-01T00:41:13.120Z,7.30
2022-12-01T00:43:39.818Z,7.04
2022-12-01T00:46:06.225Z,7.00
2022-12-01T00:48:32.656Z,6.95
2022-12-01T00:50:59.378Z,7.07
2022-12-01T00:53:25.875Z,7.17
2022-12-01T00:55:53.976Z,6.93
2022-12-01T00:58:21.012Z,7.07
2022-12-01T01:00:47.543Z,6.98
2022-12-01T01:03:14.155Z,6.95
2022-12-01T01:05:42.464Z,6.89
2022-12-01T01:08:10.439Z,6.88
2022-12-01T01:10:41.631Z,6.91
2022-12-01T01:13:08.704Z,6.93
2022-12-01T01:15:35.673Z,6.83
2022-12-01T01:18:02.336Z,7.04
2022-12-01T01:20:28.824Z,6.89
2022-12-01T01:22:55.235Z,6.95
2022-12-01T01:25:22.755Z,7.02
2022-12-01T01:27:49.444Z,6.86
2022-12-01T01:30:16.089Z,6.81
2022-12-01T01:32:42.444Z,6.86
2022-12-01T01:35:09.359Z,6.85
2022-12-01T01:37:35.713Z,6.89
2022-12-01T01:40:02.053Z,6.94
2022-12-01T01:42:28.526Z,7.21
2022-12-01T01:44:59.165Z,7.03
2022-12-01T01:47:34.920Z,6.89
2022-12-01T01:50:09.148Z,6.90
2022-12-01T01:52:38.454Z,6.77
2022-12-01T01:55:05.696Z,6.73
2022-12-01T01:57:33.946Z,6.58
2022-12-01T02:00:12.865Z,6.62
2022-12-01T02:02:43.970Z,6.60
2022-12-01T02:05:15.794Z,6.60
2022-12-01T02:07:42.904Z,6.61
2022-12-01T02:10:13.220Z,6.49
2022-12-01T02:13:04.188Z,6.47
2022-12-01T02:15:37.993Z,6.45
2022-12-01T02:18:30.068Z,6.48
2022-12-01T02:21:05.149Z,6.40
2022-12-01T02:24:08.552Z,6.17
2022-12-01T02:27:06.625Z,6.06
2022-12-01T02:29:54.674Z,6.02
2022-12-01T02:32:52.055Z,6.14
2022-12-01T02:35:39.176Z,6.02
2022-12-01T02:38:19.785Z,6.22
2022-12-01T02:41:19.749Z,6.21
2022-12-01T02:43:54.351Z,6.06
2022-12-01T02:46:27.940Z,6.04
2022-12-01T02:48:58.165Z,6.01
2022-12-01T02:51:30.663Z,6.06
2022-12-01T02:53:59.998Z,6.04
2022-12-01T02:56:27.115Z,5.92
2022-12-01T02:58:53.580Z,5.90
2022-12-01T03:01:46.229Z,5.90
2022-12-01T03:04:50.207Z,5.91
2022-12-01T03:07:45.883Z,5.74
2022-12-01T03:10:29.752Z,5.79
2022-12-01T03:13:14.953Z,5.82
2022-12-01T03:16:09.529Z,5.64
2022-12-01T03:18:41.337Z,5.59
2022-12-01T03:21:24.240Z,5.73
2022-12-01T03:23:56.917Z,5.81
2022-12-01T03:26:26.200Z,5.66
2022-12-01T03:28:56.739Z,5.71
2022-12-01T03:31:30.180Z,5.58
2022-12-01T03:34:00.971Z,5.69
2022-12-01T03:36:32.622Z,5.72
2022-12-01T03:39:04.811Z,5.54
2022-12-01T03:41:41.470Z,5.60
2022-12-01T03:44:13.474Z,5.44
2022-12-01T03:46:51.830Z,5.55
2022-12-01T03:49:18.968Z,5.53
2022-12-01T03:51:56.023Z,5.59
2022-12-01T03:54:31.432Z,5.56
2022-12-01T03:57:05.439Z,5.63
2022-12-01T03:59:35.852Z,5.61
2022-12-01T04:02:02.428Z,5.63
2022-12-01T04:04:28.861Z,5.63
2022-12-01T04:06:55.211Z,5.63
2022-12-01T04:09:21.588Z,5.69
2022-12-01T04:12:06.408Z,5.57
2022-12-01T04:14:32.784Z,5.57
2022-12-01T04:16:59.121Z,5.46
2022-12-01T04:19:25.552Z,5.57
2022-12-01T04:21:51.953Z,5.74
2022-12-01T04:24:19.011Z,5.53
2022-12-01T04:26:46.042Z,5.44
2022-12-01T04:29:12.830Z,5.46
2022-12-01T04:31:39.674Z,5.35
2022-12-01T04:34:07.239Z,5.37
2022-12-01T04:36:34.877Z,5.42
2022-12-01T04:39:02.355Z,5.60
2022-12-01T04:41:29.588Z,5.66
2022-12-01T04:43:56.355Z,5.43
2022-12-01T04:46:23.868Z,5.38
2022-12-01T04:48:50.779Z,5.37
2022-12-01T04:51:17.181Z,5.39
2022-12-01T04:53:43.534Z,5.38
2022-12-01T04:56:10.131Z,5.40
2022-12-01T04:58:37.759Z,5.35
2022-12-01T05:01:08.654Z,5.31
2022-12-01T05:03:39.416Z,5.45
2022-12-01T05:06:12.484Z,5.39
2022-12-01T05:08:38.925Z,5.34
2022-12-01T05:11:07.844Z,5.31
2022-12-01T05:13:42.008Z,5.35
2022-12-01T05:16:12.213Z,5.23
2022-12-01T05:18:39.408Z,5.25
2022-12-01T05:21:08.125Z,5.25
2022-12-01T05:23:36.632Z,5.28
2022-12-01T05:26:05.448Z,5.34
2022-12-01T05:28:31.948Z,5.24
2022-12-01T05:30:58.347Z,5.38
2022-12-01T05:33:26.325Z,5.23
2022-12-01T05:35:53.590Z,5.35
2022-12-01T05:38:20.719Z,5.48
2022-12-01T05:40:52.221Z,5.31
2022-12-01T05:43:23.890Z,5.26
2022-12-01T05:45:54.388Z,5.50
2022-12-01T05:48:21.047Z,5.41
2022-12-01T05:50:47.424Z,5.53
2022-12-01T05:53:14.825Z,5.35
2022-12-01T05:55:41.647Z,5.14
2022-12-01T05:58:08.318Z,5.27
2022-12-01T06:00:36.833Z,5.15
2022-12-01T06:03:06.283Z,5.17
2022-12-01T06:05:32.720Z,5.23
2022-12-01T06:07:59.184Z,5.24
2022-12-01T06:10:25.532Z,5.01
2022-12-01T06:12:52.022Z,5.20
2022-12-01T06:15:18.441Z,5.24
2022-12-01T06:17:44.871Z,5.05
2022-12-01T06:20:12.159Z,5.28
2022-12-01T06:22:38.568Z,5.26
2022-12-01T06:25:05.400Z,4.95
2022-12-01T06:27:31.831Z,5.04
2022-12-01T06:29:58.290Z,5.11
2022-12-01T06:32:24.665Z,5.29
2022-12-01T06:34:51.070Z,5.22
2022-12-01T06:37:17.524Z,5.04
2022-12-01T06:39:43.924Z,5.09
2022-12-01T06:42:10.437Z,4.88
2022-12-01T06:44:36.963Z,4.94
2022-12-01T06:47:03.440Z,5.11
2022-12-01T06:49:29.854Z,4.98
2022-12-01T06:51:56.259Z,5.23
2022-12-01T06:54:22.635Z,4.87
2022-12-01T06:56:49.260Z,4.91
2022-12-01T06:59:15.710Z,4.81
2022-12-01T07:01:42.559Z,4.87
2022-12-01T07:04:08.950Z,5.04
2022-12-01T07:06:35.355Z,4.89
2022-12-01T07:09:01.699Z,4.89
2022-12-01T07:11:28.455Z,4.85
2022-12-01T07:13:56.608Z,4.80
2022-12-01T07:16:23.297Z,4.79
2022-12-01T07:18:49.840Z,5.11
2022-12-01T07:21:16.955Z,4.95
2022-12-01T07:23:43.444Z,4.77
2022-12-01T07:26:15.096Z,4.73
2022-12-01T07:28:42.168Z,4.63
2022-12-01T07:31:11.990Z,4.61
2022-12-01T07:33:39.360Z,4.80
2022-12-01T07:36:06.313Z,4.57
2022-12-01T07:38:33.702Z,4.77
2022-12-01T07:41:14.856Z,4.66
2022-12-01T07:43:41.626Z,4.70
2022-12-01T07:46:18.745Z,4.71
2022-12-01T07:48:48.860Z,4.73
2022-12-01T07:51:16.651Z,4.67
2022-12-01T07:53:45.000Z,4.66
2022-12-01T07:56:11.716Z,4.67
2022-12-01T07:58:38.515Z,4.81
2022-12-01T08:01:09.326Z,4.93
2022-12-01T08:03:36.399Z,4.71
2022-12-01T08:06:04.190Z,4.67
2022-12-01T08:08:32.404Z,4.87
2022-12-01T08:11:04.723Z,4.71
2022-12-01T08:13:31.602Z,4.99
2022-12-01T08:15:58.260Z,4.96
2022-12-01T08:18:24.829Z,4.81
2022-12-01T08:20:51.547Z,4.74
2022-12-01T08:23:17.939Z,4.64
2022-12-01T08:25:44.314Z,4.81
2022-12-01T08:28:10.718Z,4.85
2022-12-01T08:30:37.119Z,4.89
2022-12-01T08:33:03.572Z,5.19
2022-12-01T08:35:29.913Z,4.98
2022-12-01T08:37:56.339Z,4.87
2022-12-01T08:40:22.755Z,4.82
2022-12-01T08:42:51.651Z,4.80
2022-12-01T08:45:18.029Z,4.85
2022-12-01T08:47:44.393Z,4.90
2022-12-01T08:50:12.316Z,4.81
2022-12-01T08:52:38.847Z,4.76
2022-12-01T08:55:06.215Z,4.80
2022-12-01T08:57:32.771Z,4.99
2022-12-01T08:59:59.220Z,4.82
2022-12-01T09:02:25.832Z,4.79
2022-12-01T09:04:52.447Z,4.78
2022-12-01T09:07:25.859Z,4.75
2022-12-01T09:09:53.004Z,4.67
2022-12-01T09:12:19.434Z,4.70
2022-12-01T09:14:48.236Z,4.71
2022-12-01T09:17:15.840Z,4.59
2022-12-01T09:19:43.079Z,4.63
2022-12-01T09:22:10.560Z,4.71
2022-12-01T09:24:37.107Z,4.59
2022-12-01T09:27:04.139Z,4.76
2022-12-01T09:29:31.161Z,4.63
2022-12-01T09:31:59.016Z,4.75
2022-12-01T09:34:26.330Z,4.62
2022-12-01T09:36:58.295Z,4.69
2022-12-01T09:39:25.455Z,4.60
2022-12-01T09:42:22.223Z,4.62
2022-12-01T09:44:52.455Z,4.77
2022-12-01T09:47:34.631Z,4.67
2022-12-01T09:50:07.566Z,4.65
2022-12-01T09:52:40.277Z,4.59
2022-12-01T09:55:12.490Z,4.65
2022-12-01T09:57:40.312Z,4.76
2022-12-01T10:00:14.451Z,4.75
2022-12-01T10:02:54.071Z,5.22
2022-12-01T10:05:23.797Z,5.00
2022-12-01T10:07:58.773Z,4.97
2022-12-01T10:10:34.710Z,5.02
2022-12-01T10:13:01.204Z,4.89
2022-12-01T10:15:46.507Z,4.86
2022-12-01T10:18:32.332Z,4.96
2022-12-01T10:21:36.440Z,4.78
2022-12-01T10:24:17.991Z,4.80
2022-12-01T10:26:51.611Z,5.01
2022-12-01T10:29:47.954Z,4.85
2022-12-01T10:32:20.262Z,4.81
2022-12-01T10:34:47.889Z,4.86
2022-12-01T10:37:21.664Z,4.85
2022-12-01T10:39:52.414Z,4.93
2022-12-01T10:42:34.241Z,5.31
2022-12-01T10:45:04.545Z,5.27
2022-12-01T10:47:32.033Z,5.45
2022-12-01T10:49:58.834Z,5.25
2022-12-01T10:52:39.761Z,5.54
2022-12-01T10:55:34.816Z,5.57
2022-12-01T10:58:12.936Z,5.64
2022-12-01T11:03:32.458Z,5.24
2022-12-01T11:06:01.659Z,5.32
2022-12-01T11:09:00.002Z,5.59
2022-12-01T11:11:33.219Z,5.61
2022-12-01T11:14:02.891Z,5.34
2022-12-01T11:16:43.006Z,5.37
2022-12-01T11:19:29.619Z,5.28
2022-12-01T11:21:58.724Z,5.29
2022-12-01T11:24:27.775Z,5.49
2022-12-01T11:26:56.775Z,5.54
2022-12-01T11:29:36.110Z,5.52
2022-12-01T11:32:16.135Z,5.98
2022-12-01T11:34:50.592Z,6.07
2022-12-01T11:37:20.037Z,5.79
2022-12-01T11:39:48.541Z,5.94
2022-12-01T11:42:31.128Z,5.52
2022-12-01T11:45:33.749Z,5.75
2022-12-01T11:48:25.540Z,5.74
2022-12-01T11:51:09.276Z,6.13
2022-12-01T11:53:38.985Z,6.29
2022-12-01T11:56:28.677Z,6.17
2022-12-01T11:59:03.629Z,6.34
2022-12-01T12:02:06.836Z,6.12
2022-12-01T12:04:42.292Z,5.99
2022-12-01T12:07:29.906Z,6.29
2022-12-01T12:10:30.450Z,6.32
2022-12-01T12:13:15.142Z,6.10
2022-12-01T12:16:06.326Z,6.25
2022-12-01T12:18:32.636Z,6.14
2022-12-01T12:21:34.647Z,6.17
2022-12-01T12:24:19.248Z,6.01
2022-12-01T12:26:57.872Z,6.03
2022-12-01T12:29:33.380Z,6.23
2022-12-01T12:32:14.999Z,6.33
2022-12-01T12:34:44.327Z,6.46
2022-12-01T12:37:29.948Z,6.40
2022-12-01T12:40:08.384Z,6.52
2022-12-01T12:42:47.787Z,6.21
2022-12-01T12:45:47.161Z,6.30
2022-12-01T12:48:57.304Z,6.45
2022-12-01T12:51:34.954Z,6.57
2022-12-01T12:54:29.934Z,6.30
2022-12-01T12:57:05.848Z,6.75
2022-12-01T12:59:51.181Z,6.85
2022-12-01T13:02:31.273Z,6.51
2022-12-01T13:05:06.539Z,6.54
2022-12-01T13:07:49.775Z,6.58
2022-12-01T13:10:26.817Z,6.30
2022-12-01T13:12:59.229Z,6.36
2022-12-01T13:15:27.239Z,6.44
2022-12-01T13:18:03.957Z,6.16
2022-12-01T13:20:33.258Z,6.46
2022-12-01T13:23:02.604Z,6.47
2022-12-01T13:25:39.560Z,6.38
2022-12-01T13:28:18.788Z,6.42
2022-12-01T13:31:04.225Z,6.38
2022-12-01T13:33:32.171Z,6.13
2022-12-01T13:36:29.862Z,6.08
2022-12-01T13:39:04.127Z,6.37
2022-12-01T13:41:39.904Z,6.35
2022-12-01T13:44:20.243Z,6.43
2022-12-01T13:46:46.780Z,6.31
2022-12-01T13:49:40.401Z,6.40
2022-12-01T13:52:22.076Z,6.43
2022-12-01T13:55:10.705Z,6.45
2022-12-01T13:57:40.112Z,6.61
2022-12-01T14:00:27.003Z,6.51
2022-12-01T14:03:12.543Z,6.64
2022-12-01T14:05:41.982Z,6.69
2022-12-01T14:08:30.935Z,6.64
2022-12-01T14:10:58.510Z,6.53
2022-12-01T14:13:26.330Z,6.46
2022-12-01T14:16:01.095Z,6.53
2022-12-01T14:18:38.845Z,6.51
2022-12-01T14:21:09.464Z,6.43
2022-12-01T14:23:40.091Z,6.34
2022-12-01T14:26:20.538Z,6.51
2022-12-01T14:28:56.001Z,6.38
2022-12-01T14:31:24.006Z,6.34
2022-12-01T14:34:17.337Z,6.23
2022-12-01T14:36:55.947Z,6.41
2022-12-01T14:39:44.867Z,6.46
2022-12-01T14:42:11.248Z,6.49
2022-12-01T14:44:54.625Z,6.61
2022-12-01T14:47:27.366Z,6.47
2022-12-01T14:50:00.887Z,6.45
2022-12-01T14:52:33.328Z,6.58
2022-12-01T14:55:03.640Z,6.40
2022-12-01T14:57:39.704Z,6.58
2022-12-01T15:00:19.460Z,6.48
2022-12-01T15:02:55.579Z,6.42
2022-12-01T15:05:28.396Z,6.46
2022-12-01T15:08:18.674Z,6.50
2022-12-01T15:10:57.259Z,6.77
2022-12-01T15:13:48.430Z,6.61
2022-12-01T15:16:20.570Z,6.74
2022-12-01T15:18:47.389Z,6.62
2022-12-01T15:21:19.622Z,6.83
2022-12-01T15:23:55.004Z,6.80
2022-12-01T15:26:24.063Z,6.84
2022-12-01T15:28:51.062Z,6.64
2022-12-01T15:31:17.621Z,6.51
2022-12-01T15:33:50.425Z,6.53
2022-12-01T15:36:17.110Z,6.50
2022-12-01T15:38:47.060Z,6.77
2022-12-01T15:41:29.015Z,6.72
2022-12-01T15:43:59.044Z,6.53
2022-12-01T15:46:30.975Z,6.73
2022-12-01T15:49:08.995Z,6.51
2022-12-01T15:51:35.588Z,6.46
2022-12-01T15:54:02.849Z,6.40
2022-12-01T15:56:35.687Z,6.80
2022-12-01T15:59:14.096Z,6.52
2022-12-01T16:01:43.019Z,6.47
2022-12-01T16:04:21.411Z,6.76
2022-12-01T16:06:55.544Z,6.62
2022-12-01T16:09:58.146Z,6.60
2022-12-01T16:12:26.529Z,6.50
2022-12-01T16:14:54.939Z,6.26
2022-12-01T16:17:23.411Z,6.27
2022-12-01T16:20:17.860Z,6.33
2022-12-01T16:22:47.138Z,6.31
2022-12-01T16:25:25.631Z,6.68
2022-12-01T16:27:56.099Z,6.37
2022-12-01T16:30:26.289Z,6.53
2022-12-01T16:33:04.731Z,6.29
2022-12-01T16:35:33.951Z,6.04
2022-12-01T16:38:10.521Z,5.96
2022-12-01T16:40:36.979Z,5.83
2022-12-01T16:43:03.319Z,6.22
2022-12-01T16:45:29.768Z,6.28
2022-12-01T16:47:56.164Z,6.40
2022-12-01T16:50:22.903Z,6.18
2022-12-01T16:52:49.315Z,6.54
2022-12-01T16:55:21.779Z,6.33
2022-12-01T16:57:48.107Z,6.53
2022-12-01T17:00:14.888Z,6.23
2022-12-01T17:02:41.452Z,6.66
2022-12-01T17:05:10.373Z,6.18
2022-12-01T17:07:36.912Z,6.19
2022-12-01T17:10:04.031Z,6.16
2022-12-01T17:12:30.460Z,6.36
2022-12-01T17:14:56.832Z,6.26
2022-12-01T17:17:23.221Z,6.58
2022-12-01T17:19:52.621Z,6.25
2022-12-01T17:22:19.009Z,6.61
2022-12-01T17:24:45.357Z,6.52
2022-12-01T17:27:11.765Z,6.31
2022-12-01T17:29:43.066Z,6.12
2022-12-01T17:32:13.592Z,6.32
2022-12-01T17:34:40.457Z,6.40
2022-12-01T17:37:06.836Z,6.26
2022-12-01T17:39:33.632Z,6.18
2022-12-01T17:42:00.094Z,6.17
2022-12-01T17:44:26.631Z,6.26
2022-12-01T17:46:53.075Z,6.07
2022-12-01T17:49:19.529Z,6.00
2022-12-01T17:51:45.980Z,5.83
2022-12-01T17:54:12.479Z,5.70
2022-12-01T17:56:39.113Z,5.82
2022-12-01T17:59:05.671Z,5.82
2022-12-01T18:01:32.254Z,5.63
2022-12-01T18:03:59.112Z,5.54
2022-12-01T18:06:27.069Z,5.45
2022-12-01T18:08:54.130Z,5.39
2022-12-01T18:11:21.952Z,5.52
2022-12-01T18:13:50.628Z,5.37
2022-12-01T18:16:23.057Z,5.23
2022-12-01T18:18:50.148Z,5.23
2022-12-01T18:21:19.623Z,5.19
2022-12-01T18:23:50.975Z,5.23
2022-12-01T18:26:18.827Z,5.19
2022-12-01T18:28:45.212Z,5.10
2022-12-01T18:31:16.044Z,5.07
2022-12-01T18:33:44.271Z,5.11
2022-12-01T18:36:38.076Z,5.04
2022-12-01T18:39:07.563Z,5.03
2022-12-01T18:41:34.927Z,5.03
2022-12-01T18:44:01.608Z,5.04
2022-12-01T18:46:28.219Z,5.11
2022-12-01T18:49:02.946Z,5.10
2022-12-01T18:51:31.932Z,5.12
2022-12-01T18:54:00.091Z,5.13
2022-12-01T18:56:28.004Z,5.01
2022-12-01T18:58:56.112Z,5.02
2022-12-01T19:01:25.485Z,5.17
2022-12-01T19:03:52.000Z,5.17
2022-12-01T19:06:18.906Z,5.21
2022-12-01T19:08:45.457Z,5.22
2022-12-01T19:11:11.832Z,5.37
2022-12-01T19:13:38.245Z,5.36
2022-12-01T19:16:07.448Z,5.11
2022-12-01T19:18:35.811Z,5.27
2022-12-01T19:21:06.587Z,5.13
2022-12-01T19:23:34.245Z,5.00
2022-12-01T19:26:10.101Z,4.89
2022-12-01T19:28:37.600Z,5.03
2022-12-01T19:31:11.554Z,4.99
2022-12-01T19:33:38.539Z,4.86
2022-12-01T19:36:11.099Z,4.87
2022-12-01T19:38:38.012Z,4.97
2022-12-01T19:41:04.663Z,4.91
2022-12-01T19:43:32.612Z,4.87
2022-12-01T19:46:07.159Z,4.90
2022-12-01T19:48:33.996Z,4.97
2022-12-01T19:51:00.967Z,5.59
2022-12-01T19:53:33.108Z,5.85
2022-12-01T19:56:04.822Z,5.72
2022-12-01T19:58:34.403Z,5.49
2022-12-01T20:01:10.865Z,5.75
2022-12-01T20:03:38.221Z,5.76
2022-12-01T20:06:26.356Z,5.68
2022-12-01T20:08:54.295Z,5.74
2022-12-01T20:11:20.628Z,5.50
2022-12-01T20:13:47.609Z,5.60
2022-12-01T20:16:18.613Z,5.50
2022-12-01T20:18:45.821Z,5.31
2022-12-01T20:21:16.370Z,5.18
2022-12-01T20:23:44.229Z,5.13
2022-12-01T20:26:12.424Z,5.23
2022-12-01T20:28:39.829Z,5.05
2022-12-01T20:31:18.365Z,4.89
2022-12-01T20:33:45.292Z,4.71
2022-12-01T20:36:11.808Z,4.70
2022-12-01T20:38:38.774Z,4.63
2022-12-01T20:41:05.863Z,4.19
2022-12-01T20:43:34.127Z,4.28
2022-12-01T20:46:00.815Z,4.17
2022-12-01T20:48:27.400Z,4.24
2022-12-01T20:50:53.878Z,4.10
2022-12-01T20:53:20.637Z,4.03
2022-12-01T20:55:47.005Z,4.25
2022-12-01T20:58:13.614Z,3.93
2022-12-01T21:00:44.204Z,3.84
2022-12-01T21:03:11.354Z,3.81
2022-12-01T21:05:43.216Z,3.69
2022-12-01T21:08:11.784Z,3.73
2022-12-01T21:10:40.697Z,3.70
2022-12-01T21:13:44.119Z,3.51
2022-12-01T21:16:30.662Z,3.79
2022-12-01T21:19:11.271Z,3.63
2022-12-01T21:21:41.483Z,3.54
2022-12-01T21:24:07.779Z,3.60
2022-12-01T21:26:36.623Z,3.50
2022-12-01T21:29:32.652Z,3.69
2022-12-01T21:32:02.925Z,3.68
2022-12-01T21:34:29.450Z,3.76
2022-12-01T21:37:01.568Z,3.71
2022-12-01T21:39:29.337Z,3.78
2022-12-01T21:41:59.652Z,3.74
2022-12-01T21:44:35.997Z,3.88
2022-12-01T21:47:31.130Z,3.96
2022-12-01T21:49:59.783Z,3.97
2022-12-01T21:52:33.156Z,4.00
2022-12-01T21:55:15.055Z,4.04
2022-12-01T21:57:44.612Z,4.05
2022-12-01T22:00:35.412Z,4.07
2022-12-01T22:03:07.981Z,4.16
2022-12-01T22:05:41.995Z,4.19
2022-12-01T22:08:14.312Z,4.22
2022-12-01T22:10:51.515Z,4.35
2022-12-01T22:13:18.991Z,4.35
2022-12-01T22:15:45.418Z,4.31
2022-12-01T22:18:20.186Z,4.34
2022-12-01T22:20:46.570Z,4.30
2022-12-01T22:23:13.148Z,4.35
2022-12-01T22:25:41.360Z,4.30
2022-12-01T22:28:17.926Z,4.27
2022-12-01T22:30:44.344Z,4.29
2022-12-01T22:33:19.827Z,4.34
2022-12-01T22:35:50.486Z,4.28
2022-12-01T22:38:33.367Z,4.23
2022-12-01T22:41:04.789Z,4.19
2022-12-01T22:43:46.329Z,4.02
2022-12-01T22:46:34.864Z,4.01
2022-12-01T22:49:10.020Z,4.06
2022-12-01T22:51:48.175Z,4.05
2022-12-01T22:54:14.455Z,4.10
2022-12-01T22:57:03.595Z,4.56
2022-12-01T22:59:35.843Z,4.22
2022-12-01T23:02:16.521Z,4.26
2022-12-01T23:04:45.910Z,4.16
2022-12-01T23:07:27.624Z,4.03
2022-12-01T23:09:56.761Z,3.80
2022-12-01T23:12:31.980Z,3.72
2022-12-01T23:15:06.990Z,3.65
2022-12-01T23:17:35.440Z,3.70
2022-12-01T23:20:10.767Z,3.71
2022-12-01T23:22:38.401Z,3.65
2022-12-01T23:25:17.415Z,3.73
2022-12-01T23:27:45.535Z,3.59
2022-12-01T23:30:14.026Z,3.56
2022-12-01T23:32:40.579Z,3.59
2022-12-01T23:35:14.515Z,3.57
2022-12-01T23:37:43.633Z,3.56
2022-12-01T23:40:33.976Z,3.58
2022-12-01T23:43:11.856Z,3.56
2022-12-01T23:45:38.784Z,3.48
2022-12-01T23:48:12.145Z,3.49
2022-12-01T23:50:38.632Z,3.52
2022-12-01T23:53:05.086Z,3.57
2022-12-01T23:55:31.710Z,3.46
2022-12-01T23:57:58.951Z,3.38
